Time;durP1;ratioP1;P1;durP2;ratioP2;P2;SDS_P1;SDS_P2;PMS_P1;PMS_P2;Temp;Humidity;BMP_temperature;BMP_pressure;BME280_temperature;BME280_humidity;BME280_pressure;Samples;Min_cycle;Max_cycle;Signal;HPM_P1;HPM_P2
2022/07/04 00:00:21;;;;;;;6.38;2.72;;;;;;;15.89;82.25;102123.38;4987516;28;20117;-65
2022/07/04 00:02:47;;;;;;;7.47;3.05;;;;;;;15.79;82.82;102121.97;4987550;28;20018;-67
2022/07/04 00:05:13;;;;;;;6.25;3.03;;;;;;;15.75;83.10;102117.69;4987612;28;20484;-68
2022/07/04 00:07:44;;;;;;;5.13;2.70;;;;;;;15.69;83.13;102113.47;4993319;28;20064;-67
2022/07/04 00:10:10;;;;;;;5.25;2.30;;;;;;;15.64;83.54;102118.06;5007623;28;20116;-66
2022/07/04 00:12:36;;;;;;;7.28;2.85;;;;;;;15.66;83.50;102124.19;5007331;28;20105;-66
2022/07/04 00:15:04;;;;;;;3.15;2.47;;;;;;;15.62;83.64;102109.28;5007875;28;20499;-66
2022/07/04 00:17:29;;;;;;;6.35;2.78;;;;;;;15.57;83.89;102112.09;5007476;28;20034;-67
2022/07/04 00:19:55;;;;;;;9.60;2.90;;;;;;;15.53;84.08;102108.69;5007353;28;20033;-67
2022/07/04 00:22:20;;;;;;;4.68;3.40;;;;;;;15.48;84.72;102107.97;5007519;28;20508;-65
2022/07/04 00:24:45;;;;;;;7.97;3.13;;;;;;;15.43;84.83;102104.59;5008183;28;20034;-64
2022/07/04 00:27:11;;;;;;;6.60;3.55;;;;;;;15.42;84.93;102110.84;4986995;28;20031;-66
2022/07/04 00:29:36;;;;;;;7.15;3.40;;;;;;;15.38;85.28;102101.25;4988662;28;20015;-65
2022/07/04 00:32:02;;;;;;;9.80;3.10;;;;;;;15.37;85.12;102108.34;4988303;28;20026;-65
2022/07/04 00:34:27;;;;;;;10.18;2.88;;;;;;;15.34;85.42;102100.47;4987395;28;20022;-66
2022/07/04 00:36:53;;;;;;;7.40;3.40;;;;;;;15.33;85.39;102104.06;4988046;28;20069;-66
2022/07/04 00:39:18;;;;;;;6.13;3.03;;;;;;;15.32;85.82;102101.47;4985141;28;20501;-66
2022/07/04 00:41:44;;;;;;;5.68;3.00;;;;;;;15.28;85.94;102100.69;4986606;28;20022;-66
2022/07/04 00:44:10;;;;;;;7.75;3.40;;;;;;;15.29;86.17;102087.34;4986793;28;20611;-66
2022/07/04 00:46:36;;;;;;;6.88;3.08;;;;;;;15.32;85.96;102089.03;4988096;28;20042;-66
2022/07/04 00:49:03;;;;;;;4.63;2.95;;;;;;;15.29;86.12;102089.13;4985800;28;20030;-66
2022/07/04 00:51:29;;;;;;;6.93;3.10;;;;;;;15.29;86.00;102079.38;4987352;28;20034;-65
2022/07/04 00:53:55;;;;;;;7.68;3.30;;;;;;;15.33;85.96;102085.47;4987565;28;20022;-65
2022/07/04 00:56:22;;;;;;;9.40;3.25;;;;;;;15.30;86.10;102090.88;4985502;28;20760;-67
2022/07/04 00:58:47;;;;;;;4.43;3.25;;;;;;;15.28;86.46;102096.25;4986238;28;20026;-66
2022/07/04 01:01:13;;;;;;;6.78;3.13;;;;;;;15.25;86.58;102096.34;4985035;28;20057;-66
2022/07/04 01:03:38;;;;;;;7.55;3.22;;;;;;;15.23;86.65;102092.03;4984254;28;20046;-66
2022/07/04 01:06:04;;;;;;;8.35;3.10;;;;;;;15.21;86.75;102089.41;4985816;28;20084;-67
2022/07/04 01:08:29;;;;;;;6.93;3.63;;;;;;;15.18;86.84;102091.28;4985377;28;20026;-65
2022/07/04 01:10:54;;;;;;;7.80;3.58;;;;;;;15.15;86.84;102090.47;4987200;28;20100;-66
2022/07/04 01:13:21;;;;;;;8.65;3.15;;;;;;;15.12;86.99;102090.59;4986931;28;20141;-67
2022/07/04 01:15:46;;;;;;;5.65;3.03;;;;;;;15.11;87.14;102082.69;4987038;28;20077;-65
2022/07/04 01:18:12;;;;;;;5.97;3.40;;;;;;;15.09;87.21;102090.69;4987012;28;20041;-66
2022/07/04 01:20:37;;;;;;;8.75;3.25;;;;;;;15.08;87.45;102082.78;4967927;28;20034;-65
2022/07/04 01:23:03;;;;;;;10.27;3.80;;;;;;;15.05;87.78;102089.03;4986751;28;20026;-65
2022/07/04 01:25:29;;;;;;;12.88;3.78;;;;;;;15.01;87.66;102077.66;4981928;28;20482;-67
2022/07/04 01:27:54;;;;;;;7.78;3.28;;;;;;;15.01;87.87;102076.78;4967736;28;20429;-65
2022/07/04 01:30:19;;;;;;;8.07;3.53;;;;;;;15.00;87.79;102067.09;4966464;28;20393;-67
2022/07/04 01:32:45;;;;;;;8.15;3.80;;;;;;;14.98;87.90;102074.22;4967423;28;20382;-67
2022/07/04 01:35:12;;;;;;;13.10;3.95;;;;;;;14.97;88.62;102069.84;4966727;28;20478;-65
2022/07/04 01:37:38;;;;;;;7.38;3.83;;;;;;;14.98;88.42;102071.56;4967311;28;20031;-65
2022/07/04 01:40:04;;;;;;;5.72;3.40;;;;;;;14.97;88.46;102070.72;4967708;28;20026;-65
2022/07/04 01:42:29;;;;;;;6.80;3.80;;;;;;;14.95;88.52;102071.66;4967110;28;20053;-66
2022/07/04 01:44:54;;;;;;;9.50;3.97;;;;;;;14.94;88.81;102064.63;4970875;28;20027;-65
2022/07/04 01:47:20;;;;;;;14.27;4.00;;;;;;;14.94;88.94;102067.28;4986605;28;20030;-66
2022/07/04 01:49:45;;;;;;;6.65;3.63;;;;;;;14.91;88.95;102066.47;4984802;28;20018;-65
2022/07/04 01:52:10;;;;;;;8.35;3.95;;;;;;;14.90;88.65;102066.53;4986431;28;20377;-66
2022/07/04 01:54:36;;;;;;;9.38;3.75;;;;;;;14.86;88.99;102065.75;4987023;28;20496;-66
2022/07/04 01:57:01;;;;;;;6.20;3.85;;;;;;;14.85;88.90;102072.00;4984499;28;20511;-65
2022/07/04 02:02:10;;;;;;;8.35;4.10;;;;;;;14.83;89.19;102065.84;4985296;28;20057;-65
2022/07/04 02:04:36;;;;;;;9.00;4.13;;;;;;;14.80;89.10;102063.31;4985267;28;20054;-66
2022/07/04 02:07:01;;;;;;;5.03;3.45;;;;;;;14.78;89.28;102067.81;4986318;28;20034;-66
2022/07/04 02:09:28;;;;;;;11.40;4.05;;;;;;;14.77;89.41;102063.38;4986297;28;20042;-65
2022/07/04 02:14:37;;;;;;;11.13;4.07;;;;;;;14.74;89.75;102058.16;4984861;28;20049;-65
2022/07/04 02:17:02;;;;;;;7.80;4.30;;;;;;;14.75;89.89;102065.22;4984943;28;20034;-65
2022/07/04 02:19:28;;;;;;;11.07;3.95;;;;;;;14.77;89.62;102055.41;4984870;28;20117;-66
2022/07/04 02:21:53;;;;;;;9.75;4.10;;;;;;;14.77;89.49;102053.63;4985677;28;20038;-66
2022/07/04 02:24:19;;;;;;;8.68;4.03;;;;;;;14.77;90.08;102056.28;4984798;28;20018;-65
2022/07/04 02:26:45;;;;;;;8.95;3.72;;;;;;;14.77;89.80;102052.75;4976954;28;20029;-66
2022/07/04 02:29:11;;;;;;;9.98;3.95;;;;;;;14.77;90.01;102058.06;4984715;28;20034;-65
2022/07/04 02:31:36;;;;;;;7.22;4.60;;;;;;;14.77;90.12;102050.97;4985185;28;20030;-66
2022/07/04 02:34:01;;;;;;;7.25;3.67;;;;;;;14.77;90.29;102052.75;4985529;28;20026;-66
2022/07/04 02:36:27;;;;;;;7.65;4.40;;;;;;;14.76;90.36;102048.38;4984499;28;20026;-67
2022/07/04 02:38:52;;;;;;;8.73;4.03;;;;;;;14.76;90.58;102061.63;4974666;28;20035;-66
2022/07/04 02:41:17;;;;;;;8.85;4.15;;;;;;;14.71;90.58;102056.47;4986288;28;20018;-66
2022/07/04 02:43:42;;;;;;;13.75;4.15;;;;;;;14.75;90.63;102057.25;4992589;28;20041;-65
2022/07/04 02:46:08;;;;;;;8.45;4.10;;;;;;;14.71;90.68;102053.81;5003623;28;20108;-66
2022/07/04 02:48:33;;;;;;;10.13;4.25;;;;;;;14.68;91.09;102050.38;5004273;28;20076;-66
2022/07/04 02:50:58;;;;;;;6.28;3.83;;;;;;;14.69;91.26;102052.16;4979572;28;20512;-65
2022/07/04 02:53:24;;;;;;;12.43;4.55;;;;;;;14.64;91.34;102055.81;4985596;28;20034;-66
2022/07/04 02:55:49;;;;;;;10.05;4.13;;;;;;;14.70;91.42;102064.47;4981380;28;20098;-65
2022/07/04 02:58:14;;;;;;;6.80;3.63;;;;;;;14.72;90.70;102060.00;4977371;28;20125;-66
2022/07/04 03:00:40;;;;;;;6.38;3.25;;;;;;;14.79;91.08;102058.94;4985238;28;20030;-65
2022/07/04 03:03:05;;;;;;;11.27;4.18;;;;;;;14.83;90.88;102052.59;4984658;28;20053;-67
2022/07/04 03:05:32;;;;;;;8.13;3.88;;;;;;;14.84;90.90;102062.28;4985511;28;20054;-65
2022/07/04 03:07:57;;;;;;;8.57;3.80;;;;;;;14.84;91.12;102058.78;4985975;28;20061;-66
2022/07/04 03:10:23;;;;;;;8.35;3.75;;;;;;;14.89;91.20;102056.81;4978826;28;20066;-66
2022/07/04 03:12:48;;;;;;;8.30;3.40;;;;;;;14.89;91.09;102055.06;4983762;28;20635;-66
2022/07/04 03:15:13;;;;;;;13.07;4.60;;;;;;;14.90;91.36;102062.09;4982913;28;20023;-67
2022/07/04 03:17:39;;;;;;;7.35;3.88;;;;;;;14.90;91.16;102064.75;4985508;28;20081;-65
2022/07/04 03:20:04;;;;;;;8.40;3.92;;;;;;;14.88;91.29;102061.28;4985430;28;20031;-66
2022/07/04 03:22:30;;;;;;;7.68;3.75;;;;;;;14.89;91.22;102063.00;4985343;28;20493;-66
2022/07/04 03:24:55;;;;;;;9.88;4.00;;;;;;;14.90;91.23;102063.88;4977452;28;20027;-68
2022/07/04 03:27:20;;;;;;;9.45;3.83;;;;;;;14.86;91.48;102068.41;4988845;28;20358;-66
2022/07/04 03:29:46;;;;;;;8.23;3.58;;;;;;;14.84;91.38;102070.25;4987731;28;20609;-67
2022/07/04 03:32:11;;;;;;;7.80;3.85;;;;;;;14.85;91.44;102076.44;4987767;28;20389;-66
2022/07/04 03:34:37;;;;;;;9.05;3.30;;;;;;;14.86;91.21;102068.41;4988694;28;20113;-66
2022/07/04 03:37:02;;;;;;;14.85;4.00;;;;;;;14.90;91.43;102062.09;4981095;28;20118;-67
2022/07/04 03:39:27;;;;;;;9.30;4.00;;;;;;;14.99;91.45;102073.34;4986510;28;20263;-66
2022/07/04 03:41:53;;;;;;;9.52;3.85;;;;;;;14.98;91.76;102072.44;4986086;28;20025;-66
2022/07/04 03:44:18;;;;;;;11.55;3.83;;;;;;;15.02;91.71;102067.94;4987155;28;20056;-66
2022/07/04 03:46:43;;;;;;;12.20;3.92;;;;;;;15.05;91.77;102065.13;4988840;28;20031;-66
2022/07/04 03:49:09;;;;;;;11.45;4.10;;;;;;;15.07;91.74;102070.41;4987913;28;20030;-67
2022/07/04 03:51:34;;;;;;;10.15;4.57;;;;;;;15.07;91.94;102070.41;4978636;28;20046;-67
2022/07/04 03:53:59;;;;;;;12.98;4.40;;;;;;;15.06;92.12;102071.31;4988328;28;20120;-67
2022/07/04 03:56:25;;;;;;;7.45;4.05;;;;;;;15.07;91.85;102068.63;4987149;28;20289;-67
2022/07/04 03:58:50;;;;;;;10.98;4.03;;;;;;;15.09;92.11;102074.75;4988472;28;20033;-68
2022/07/04 04:01:17;;;;;;;15.18;3.83;;;;;;;15.15;92.00;102071.88;4988385;28;20029;-65
2022/07/04 04:06:26;;;;;;;12.57;4.30;;;;;;;15.24;91.92;102081.34;4980203;28;20084;-67
2022/07/04 04:08:51;;;;;;;9.45;4.13;;;;;;;15.25;91.78;102090.16;4987721;28;20026;-66
2022/07/04 04:11:16;;;;;;;10.75;4.20;;;;;;;15.30;91.77;102093.53;4977669;28;20074;-68
2022/07/04 04:13:42;;;;;;;11.75;4.57;;;;;;;15.28;92.13;102095.38;4987789;28;20061;-66
2022/07/04 04:16:07;;;;;;;7.80;4.10;;;;;;;15.29;92.03;102094.44;4978627;28;20033;-65
2022/07/04 04:18:33;;;;;;;7.65;3.20;;;;;;;15.32;92.03;102091.69;4984041;28;20481;-66
2022/07/04 04:20:58;;;;;;;11.60;4.30;;;;;;;15.41;92.10;102096.69;4981094;28;20027;-68
2022/07/04 04:23:23;;;;;;;13.00;5.13;;;;;;;15.51;92.06;102099.88;4987043;28;20036;-65
2022/07/04 04:25:49;;;;;;;12.75;3.72;;;;;;;15.53;92.19;102102.47;4983514;28;20038;-67
2022/07/04 04:28:14;;;;;;;13.57;4.70;;;;;;;15.58;92.07;102091.69;4982222;28;20022;-67
2022/07/04 04:30:39;;;;;;;6.45;3.45;;;;;;;15.63;92.18;102095.94;4987444;28;20030;-66
2022/07/04 04:33:05;;;;;;;14.25;3.90;;;;;;;15.71;91.78;102095.66;4995220;28;20030;-65
2022/07/04 04:35:30;;;;;;;15.15;4.25;;;;;;;15.72;92.00;102100.06;4989177;28;20029;-65
2022/07/04 04:37:56;;;;;;;10.18;4.20;;;;;;;15.75;91.80;102102.59;5000825;28;20038;-65
2022/07/04 04:40:21;;;;;;;13.07;4.60;;;;;;;15.83;92.05;102102.31;5003213;28;20404;-65
2022/07/04 04:42:46;;;;;;;9.73;4.35;;;;;;;15.95;91.75;102102.81;4998995;28;20014;-66
2022/07/04 04:45:12;;;;;;;16.75;4.20;;;;;;;16.06;91.56;102105.97;4996757;28;20033;-65
2022/07/04 04:47:37;;;;;;;11.57;3.88;;;;;;;16.14;91.20;102098.56;5005938;28;20044;-66
2022/07/04 04:50:03;;;;;;;11.50;3.88;;;;;;;16.17;91.09;102108.25;4999204;28;20275;-66
2022/07/04 04:52:28;;;;;;;15.65;4.13;;;;;;;16.17;90.98;102117.06;4989291;28;20029;-66
2022/07/04 04:54:53;;;;;;;11.35;3.47;;;;;;;16.23;91.27;102123.09;4988869;28;20819;-66
2022/07/04 04:57:19;;;;;;;9.35;3.67;;;;;;;16.36;91.25;102129.69;5001238;28;20034;-65
2022/07/04 04:59:44;;;;;;;11.32;3.78;;;;;;;16.57;91.38;102134.22;5006686;28;20026;-67
2022/07/04 05:02:09;;;;;;;14.80;3.75;;;;;;;16.75;91.06;102122.00;5005843;28;20365;-66
2022/07/04 05:04:34;;;;;;;10.80;3.72;;;;;;;17.04;90.25;102122.66;5006465;28;20042;-66
2022/07/04 05:07:00;;;;;;;12.27;3.83;;;;;;;17.25;89.92;102128.03;5005966;28;20033;-66
2022/07/04 05:09:25;;;;;;;10.48;3.88;;;;;;;17.55;88.08;102128.53;5006842;28;20026;-66
2022/07/04 05:11:51;;;;;;;14.25;3.40;;;;;;;17.77;86.42;102124.06;4994141;28;20042;-66
2022/07/04 05:14:16;;;;;;;8.55;2.63;;;;;;;18.01;85.27;102124.78;4986166;28;20026;-66
2022/07/04 05:16:42;;;;;;;13.43;3.03;;;;;;;18.20;84.76;102126.63;4986060;28;20061;-66
2022/07/04 05:19:07;;;;;;;13.73;3.40;;;;;;;18.34;83.96;102131.34;4986212;28;20445;-66
2022/07/04 05:21:32;;;;;;;8.88;3.08;;;;;;;18.47;83.69;102141.41;4986905;28;20452;-65
2022/07/04 05:23:58;;;;;;;8.20;3.08;;;;;;;18.62;82.97;102135.38;4986485;28;20220;-65
2022/07/04 05:26:23;;;;;;;11.68;2.60;;;;;;;18.62;82.63;102127.34;4985111;28;20110;-65
2022/07/04 05:28:49;;;;;;;14.55;3.33;;;;;;;18.61;82.65;102132.75;4986423;28;20045;-66
2022/07/04 05:31:14;;;;;;;10.20;3.22;;;;;;;18.60;82.71;102129.22;4985669;28;20473;-66
2022/07/04 05:33:39;;;;;;;14.43;3.28;;;;;;;18.60;83.17;102131.88;4985925;28;20061;-66
2022/07/04 05:36:05;;;;;;;11.60;3.42;;;;;;;18.68;83.20;102124.41;4969359;28;20370;-66
2022/07/04 05:38:31;;;;;;;12.90;3.22;;;;;;;18.78;83.16;102124.81;4985169;28;20088;-65
2022/07/04 05:40:56;;;;;;;15.63;3.30;;;;;;;18.85;82.34;102125.38;4966996;28;20322;-65
2022/07/04 05:43:22;;;;;;;9.77;2.53;;;;;;;18.89;81.89;102126.97;4966261;28;20433;-65
2022/07/04 05:45:50;;;;;;;13.05;2.92;;;;;;;18.79;81.91;102118.53;4966504;28;20497;-67
2022/07/04 05:48:16;;;;;;;9.70;3.35;;;;;;;18.90;81.46;102128.69;4983472;28;20045;-66
2022/07/04 05:50:41;;;;;;;12.73;2.63;;;;;;;18.90;80.83;102134.03;4984738;28;20426;-66
2022/07/04 05:53:06;;;;;;;13.50;3.05;;;;;;;18.91;80.46;102135.75;4986672;28;20080;-66
2022/07/04 05:55:32;;;;;;;9.18;2.67;;;;;;;18.96;79.69;102132.00;4985312;28;20033;-66
2022/07/04 05:57:57;;;;;;;8.50;2.60;;;;;;;18.91;79.81;102133.06;4984751;28;20034;-66
2022/07/04 06:00:22;;;;;;;9.13;2.35;;;;;;;18.89;79.65;102126.09;4985862;28;20057;-66
2022/07/04 06:02:48;;;;;;;16.73;2.90;;;;;;;18.96;79.20;102126.66;4987843;28;20026;-64
2022/07/04 06:05:13;;;;;;;11.85;2.42;;;;;;;18.98;77.99;102122.97;4983600;28;20074;-66
2022/07/04 06:07:38;;;;;;;10.27;2.38;;;;;;;19.06;76.63;102122.59;4993812;28;20040;-66
2022/07/04 06:10:05;;;;;;;7.53;2.00;;;;;;;19.08;76.73;102119.88;5005470;28;20298;-66
2022/07/04 06:12:30;;;;;;;6.97;2.10;;;;;;;19.07;77.00;102118.97;5003518;28;20104;-65
2022/07/04 06:14:56;;;;;;;9.18;2.22;;;;;;;19.03;76.83;102120.06;5005202;28;20406;-66
2022/07/04 06:17:21;;;;;;;8.10;2.35;;;;;;;19.12;76.14;102119.66;5004870;28;20061;-66
2022/07/04 06:19:47;;;;;;;4.20;1.95;;;;;;;19.15;75.73;102115.97;4991158;28;20038;-66
2022/07/04 06:22:12;;;;;;;5.75;1.90;;;;;;;19.24;74.43;102115.50;4985378;28;20042;-65
2022/07/04 06:24:38;;;;;;;5.07;1.85;;;;;;;19.31;73.07;102116.03;4992850;28;20484;-65
2022/07/04 06:27:04;;;;;;;4.97;1.70;;;;;;;19.31;72.21;102116.91;5003615;28;20145;-65
2022/07/04 06:29:29;;;;;;;4.00;1.67;;;;;;;19.34;72.03;102115.00;5003936;28;20120;-64
2022/07/04 06:31:54;;;;;;;6.10;1.80;;;;;;;19.41;71.47;102121.78;5004064;28;20117;-64
2022/07/04 06:37:03;;;;;;;6.28;1.70;;;;;;;19.59;71.12;102108.44;5004931;28;20100;-69
2022/07/04 06:39:29;;;;;;;4.90;2.00;;;;;;;19.62;71.31;102102.91;5004527;28;20022;-69
2022/07/04 06:41:54;;;;;;;3.28;2.13;;;;;;;19.60;69.49;102103.00;5005099;28;20045;-67
2022/07/04 06:44:20;;;;;;;4.75;2.33;;;;;;;19.68;69.04;102114.16;4993637;28;20034;-68
2022/07/04 06:46:45;;;;;;;5.70;1.83;;;;;;;19.76;69.69;102104.84;4984519;28;20106;-68
2022/07/04 06:49:11;;;;;;;5.50;2.00;;;;;;;19.82;68.50;102115.22;4984224;28;20026;-68
2022/07/04 06:51:37;;;;;;;4.15;2.03;;;;;;;19.90;68.91;102118.34;4985668;28;20026;-68
2022/07/04 06:54:02;;;;;;;2.55;1.60;;;;;;;19.94;69.17;102117.25;4985801;28;20038;-68
2022/07/04 06:56:27;;;;;;;5.88;2.00;;;;;;;20.04;68.93;102138.16;5002467;28;20392;-68
2022/07/04 06:58:53;;;;;;;6.20;2.00;;;;;;;20.14;68.18;102120.66;5006733;28;20396;-66
2022/07/04 07:01:18;;;;;;;7.18;1.95;;;;;;;20.15;68.57;102132.25;5008261;28;20097;-68
2022/07/04 07:03:43;;;;;;;4.32;2.10;;;;;;;20.21;68.36;102131.91;5007949;28;20511;-67
2022/07/04 07:06:09;;;;;;;4.53;1.77;;;;;;;20.34;68.30;102121.41;5008824;28;20018;-68
2022/07/04 07:08:34;;;;;;;6.30;1.52;;;;;;;20.47;68.26;102121.59;5003295;28;20485;-69
2022/07/04 07:11:12;;;;;;;4.43;1.80;;;;;;;20.52;67.08;102126.66;4987969;28;20506;-69
2022/07/04 07:13:42;;;;;;;5.57;2.03;;;;;;;20.66;66.92;102116.06;4987945;28;20026;-66
2022/07/04 07:16:07;;;;;;;4.85;1.77;;;;;;;20.89;66.29;102121.06;4987615;28;20434;-67
2022/07/04 07:18:33;;;;;;;10.32;1.90;;;;;;;20.93;65.71;102123.50;4988735;28;20030;-67
2022/07/04 07:20:58;;;;;;;4.35;1.77;;;;;;;20.83;64.32;102136.50;4986810;28;20428;-69
2022/07/04 07:23:23;;;;;;;3.28;1.50;;;;;;;20.70;64.43;102119.41;4986449;28;20664;-68
2022/07/04 07:25:49;;;;;;;2.67;1.30;;;;;;;20.49;65.03;102126.84;4986622;28;20073;-68
2022/07/04 07:28:14;;;;;;;3.53;1.48;;;;;;;20.41;65.02;102127.28;4988580;28;20054;-68
2022/07/04 07:30:39;;;;;;;4.68;1.55;;;;;;;20.47;63.44;102136.78;4990282;28;20026;-69
2022/07/04 07:33:05;;;;;;;2.75;1.40;;;;;;;20.49;61.93;102137.53;5006481;28;20034;-68
2022/07/04 07:35:30;;;;;;;3.63;1.35;;;;;;;20.61;60.36;102134.19;4992827;28;20062;-65
2022/07/04 07:37:55;;;;;;;2.08;1.40;;;;;;;20.70;61.19;102128.31;4988020;28;20135;-65
2022/07/04 07:40:21;;;;;;;3.80;1.20;;;;;;;20.85;60.60;102128.38;4986564;28;20496;-65
2022/07/04 07:42:46;;;;;;;1.40;1.15;;;;;;;20.94;59.17;102127.03;4986174;28;20053;-67
2022/07/04 07:45:12;;;;;;;3.70;1.15;;;;;;;20.93;58.99;102131.53;4986011;28;20026;-68
2022/07/04 07:47:37;;;;;;;2.72;1.27;;;;;;;20.97;58.22;102129.53;4986124;28;20117;-66
2022/07/04 07:50:03;;;;;;;2.25;1.13;;;;;;;20.97;57.19;102137.56;4987221;28;20029;-70
2022/07/04 07:52:29;;;;;;;1.75;1.05;;;;;;;20.99;56.93;102142.84;4995220;28;20030;-70
2022/07/04 07:54:54;;;;;;;1.92;1.10;;;;;;;21.11;57.16;102135.91;4993119;28;20085;-69
2022/07/04 07:57:20;;;;;;;2.30;1.00;;;;;;;20.94;57.85;102140.41;4985838;28;20395;-68
2022/07/04 07:59:45;;;;;;;1.40;1.00;;;;;;;21.25;56.34;102148.50;4986723;28;20027;-68
2022/07/04 08:02:10;;;;;;;3.10;1.13;;;;;;;21.34;55.62;102140.78;5002523;28;20042;-68
2022/07/04 08:04:37;;;;;;;1.40;1.20;;;;;;;21.57;54.76;102146.59;5006548;28;20042;-68
2022/07/04 08:07:03;;;;;;;2.55;1.30;;;;;;;;;;4993619;28;20033;-69
2022/07/04 08:09:29;;;;;;;5.30;1.38;;;;;;;21.91;53.08;102150.88;5004519;28;20029;-67
2022/07/04 08:11:54;;;;;;;3.10;1.45;;;;;;;22.15;52.51;102153.84;5005049;28;20041;-68
2022/07/04 08:14:19;;;;;;;3.83;1.20;;;;;;;22.42;51.46;102147.69;5007044;28;20092;-69
2022/07/04 08:16:45;;;;;;;4.53;1.38;;;;;;;22.71;50.48;102155.72;5007502;28;20079;-66
2022/07/04 08:19:10;;;;;;;4.05;1.00;;;;;;;23.00;48.02;102146.72;5006316;28;20037;-68
2022/07/04 08:21:35;;;;;;;1.88;0.98;;;;;;;23.27;47.20;102161.09;5005808;28;20368;-68
2022/07/04 08:24:01;;;;;;;1.77;0.98;;;;;;;23.36;48.04;102152.41;5006098;28;20068;-68
2022/07/04 08:26:26;;;;;;;1.55;0.95;;;;;;;23.41;49.30;102157.47;4993688;28;20070;-68
2022/07/04 08:28:52;;;;;;;3.97;1.20;;;;;;;23.53;48.04;102161.16;4985696;28;20045;-68
2022/07/04 08:31:18;;;;;;;1.00;0.90;;;;;;;23.46;47.43;102169.66;4985262;28;20030;-69
2022/07/04 08:33:44;;;;;;;1.35;1.05;;;;;;;23.21;46.67;102167.75;4985534;28;20027;-69
2022/07/04 08:36:09;;;;;;;1.80;0.90;;;;;;;23.20;46.79;102166.88;4991551;28;20385;-69
2022/07/04 08:38:34;;;;;;;1.95;0.90;;;;;;;23.10;47.44;102171.13;5006470;28;20453;-69
2022/07/04 08:41:02;;;;;;;2.47;0.80;;;;;;;23.01;46.24;102164.56;5004944;28;20261;-70
2022/07/04 08:43:32;;;;;;;1.73;1.30;;;;;;;23.05;47.30;102178.63;5005171;28;20105;-68
2022/07/04 08:45:59;;;;;;;2.75;1.00;;;;;;;23.03;46.62;102177.91;4994301;28;20031;-68
2022/07/04 08:48:28;;;;;;;1.92;1.20;;;;;;;23.03;46.81;102180.59;4986180;28;20014;-69
2022/07/04 08:50:59;;;;;;;1.02;0.93;;;;;;;23.02;45.72;102179.72;4985038;28;20018;-69
2022/07/04 08:53:28;;;;;;;1.42;1.10;;;;;;;23.06;46.55;102183.06;4984294;28;20157;-70
2022/07/04 08:58:39;;;;;;;1.95;1.20;;;;;;;23.12;47.59;102185.34;4987153;28;20443;-71
2022/07/04 09:01:07;;;;;;;5.18;1.30;;;;;;;23.02;46.97;102182.41;4987257;28;20110;-65
2022/07/04 09:03:33;;;;;;;2.00;1.10;;;;;;;23.14;47.07;102186.09;4984314;28;20053;-70
2022/07/04 09:05:59;;;;;;;1.85;1.15;;;;;;;23.07;47.19;102190.16;4983872;28;20037;-68
2022/07/04 09:08:24;;;;;;;3.95;1.10;;;;;;;23.15;47.39;102193.19;4981323;28;20038;-68
2022/07/04 09:10:51;;;;;;;3.58;1.02;;;;;;;23.08;47.23;102183.81;4985928;28;20033;-68
2022/07/04 09:13:17;;;;;;;2.95;1.13;;;;;;;23.02;46.57;102203.06;4985140;28;20511;-69
2022/07/04 09:15:45;;;;;;;2.45;1.27;;;;;;;22.89;47.44;102198.47;4992406;28;20445;-70
2022/07/04 09:18:24;;;;;;;1.50;0.90;;;;;;;22.93;47.14;102189.25;4985866;28;20027;-70
2022/07/04 09:20:50;;;;;;;1.90;1.02;;;;;;;22.99;46.85;102196.03;4986593;28;20117;-71
2022/07/04 09:23:24;;;;;;;1.00;0.77;;;;;;;23.29;46.74;102196.78;5005623;28;20006;-69
2022/07/04 09:26:06;;;;;;;1.75;0.95;;;;;;;23.44;45.71;102185.03;5005046;28;20038;-68
2022/07/04 09:28:32;;;;;;;1.77;1.15;;;;;;;23.30;46.57;102193.16;4967680;28;20029;-65
2022/07/04 09:30:58;;;;;;;1.50;0.80;;;;;;;23.18;43.78;102192.97;4964617;28;20038;-69
2022/07/04 09:33:43;;;;;;;2.70;0.88;;;;;;;22.89;46.62;102209.22;4987482;28;20022;-68
2022/07/04 09:36:18;;;;;;;7.40;1.10;;;;;;;22.79;47.14;102197.34;4985051;28;20014;-67
2022/07/04 09:38:44;;;;;;;3.53;0.88;;;;;;;22.88;45.97;102193.19;4985501;28;20112;-68
2022/07/04 09:41:24;;;;;;;3.00;1.20;;;;;;;22.83;46.21;102185.44;4985486;28;20037;-68
2022/07/04 09:44:04;;;;;;;0.57;0.57;;;;;;;22.77;43.62;102189.38;4967579;28;20514;-68
2022/07/04 09:46:30;;;;;;;1.52;0.93;;;;;;;22.84;44.02;102205.97;4965481;28;20114;-67
2022/07/04 09:48:55;;;;;;;2.65;1.00;;;;;;;23.05;44.10;102184.88;5004673;28;20581;-69
2022/07/04 09:51:41;;;;;;;4.97;1.10;;;;;;;23.06;44.74;102193.81;5004593;28;20495;-68
2022/07/04 09:54:19;;;;;;;0.98;0.85;;;;;;;23.09;44.60;102199.00;4976856;28;20026;-68
2022/07/04 09:56:51;;;;;;;4.72;1.10;;;;;;;23.25;45.39;102189.88;4982293;28;20030;-67
2022/07/04 09:59:17;;;;;;;2.58;1.00;;;;;;;23.32;45.10;102191.19;4984583;28;20085;-69
2022/07/04 10:01:42;;;;;;;1.77;1.05;;;;;;;23.34;45.83;102186.59;4984906;28;20389;-66
2022/07/04 10:04:09;;;;;;;1.65;0.80;;;;;;;23.41;43.72;102179.88;4981424;28;20536;-69
2022/07/04 10:06:37;;;;;;;4.07;1.20;;;;;;;23.77;44.26;102179.25;4985198;28;20073;-67
2022/07/04 10:09:15;;;;;;;2.40;0.93;;;;;;;23.94;41.97;102181.66;4983143;28;20426;-68
2022/07/04 10:11:42;;;;;;;1.53;0.87;;;;;;;23.96;41.82;102179.69;4983007;28;20328;-70
2022/07/04 10:14:09;;;;;;;0.80;0.80;;;;;;;23.83;43.24;102193.16;4984072;28;20026;-68
2022/07/04 10:16:36;;;;;;;3.83;0.90;;;;;;;23.77;41.44;102179.25;4985070;28;20018;-70
2022/07/04 10:19:01;;;;;;;2.00;0.90;;;;;;;24.01;41.14;102183.91;4979370;28;20117;-70
2022/07/04 10:21:27;;;;;;;2.55;1.10;;;;;;;24.06;42.41;102190.69;4984526;28;20411;-69
2022/07/04 10:23:52;;;;;;;2.15;1.00;;;;;;;24.11;41.05;102187.69;4983882;28;20135;-70
2022/07/04 10:26:19;;;;;;;2.50;0.70;;;;;;;24.44;39.94;102193.50;4984677;28;20032;-68
2022/07/04 10:28:47;;;;;;;5.18;1.00;;;;;;;24.64;40.55;102183.94;4984778;28;20049;-67
2022/07/04 10:31:13;;;;;;;4.27;1.07;;;;;;;24.42;41.25;102195.41;4985743;28;20095;-69
2022/07/04 10:33:38;;;;;;;2.38;1.17;;;;;;;24.44;41.14;102186.25;4984433;28;20305;-69
2022/07/04 10:36:13;;;;;;;2.35;1.15;;;;;;;24.32;40.00;102203.31;4989264;28;20448;-69
2022/07/04 10:38:53;;;;;;;1.88;1.05;;;;;;;24.33;41.85;102186.19;4990042;28;20403;-67
2022/07/04 10:41:21;;;;;;;3.17;1.08;;;;;;;24.18;40.60;102189.00;4989475;28;20025;-68
2022/07/04 10:43:59;;;;;;;2.33;1.20;;;;;;;24.38;40.32;102185.84;4990500;28;20058;-69
2022/07/04 10:46:45;;;;;;;0.75;0.70;;;;;;;24.49;40.56;102180.53;4988521;28;20121;-68
2022/07/04 10:49:13;;;;;;;1.25;0.80;;;;;;;24.31;41.47;102188.09;4989712;28;20030;-68
2022/07/04 10:51:42;;;;;;;0.98;0.80;;;;;;;23.78;41.56;102202.53;4988569;28;20053;-68
2022/07/04 10:54:19;;;;;;;;;;;;;;;23.79;40.96;102188.97;5005304;28;20473;-67
2022/07/04 10:56:55;;;;;;;1.88;0.80;;;;;;;23.91;40.78;102189.94;5007747;28;19905;-69
2022/07/04 10:59:26;;;;;;;4.75;1.25;;;;;;;23.68;41.64;102199.59;4973435;28;20034;-69
2022/07/04 11:02:06;;;;;;;2.90;1.05;;;;;;;23.32;43.38;102180.44;4951745;28;20385;-70
2022/07/04 11:04:44;;;;;;;2.33;1.08;;;;;;;23.43;42.73;102185.13;4969784;28;20058;-68
2022/07/04 11:07:09;;;;;;;2.80;1.07;;;;;;;24.03;41.25;102180.16;4971697;28;20019;-69
2022/07/04 11:09:35;;;;;;;2.10;1.05;;;;;;;23.97;41.13;102176.06;4989273;28;20030;-69
2022/07/04 11:12:05;;;;;;;3.70;1.30;;;;;;;24.14;40.22;102174.00;4988749;28;20027;-69
2022/07/04 11:14:44;;;;;;;3.10;0.80;;;;;;;24.15;40.01;102177.56;4986061;28;20018;-69
2022/07/04 11:17:34;;;;;;;;;;;;;;;23.97;41.11;102180.56;4985915;28;20485;-71
2022/07/04 11:20:00;;;;;;;2.17;0.93;;;;;;;23.75;41.61;102176.66;4987336;28;19949;-69
2022/07/04 11:22:26;;;;;;;2.28;1.13;;;;;;;23.94;41.36;102170.88;4994651;28;20076;-69
2022/07/04 11:24:52;;;;;;;1.42;0.85;;;;;;;23.96;41.20;102174.31;4990247;28;20026;-69
2022/07/04 11:27:17;;;;;;;4.47;0.70;;;;;;;24.18;40.04;102180.94;4987113;28;20026;-68
2022/07/04 11:30:10;;;;;;;0.82;0.75;;;;;;;24.21;39.85;102167.25;4987922;28;20038;-70
2022/07/04 11:32:36;;;;;;;1.95;0.80;;;;;;;24.55;40.60;102174.72;4986143;28;20437;-69
2022/07/04 11:35:06;;;;;;;2.03;0.93;;;;;;;24.85;39.04;102169.84;4985821;28;20073;-68